createdAt,value
2023-03-25T00:02:24.399Z,5.73
2023-03-25T00:04:52.884Z,9.47
2023-03-25T00:07:21.401Z,6.43
2023-03-25T00:09:48.688Z,8.35
2023-03-25T00:12:18.944Z,8.47
2023-03-25T00:14:54.689Z,5.40
2023-03-25T00:17:23.202Z,8.13
2023-03-25T00:19:50.632Z,8.00
2023-03-25T00:22:20.787Z,4.67
2023-03-25T00:24:48.243Z,7.97
2023-03-25T00:27:19.456Z,11.00
2023-03-25T00:29:46.714Z,4.00
2023-03-25T00:32:14.932Z,6.30
2023-03-25T00:34:47.414Z,7.37
2023-03-25T00:37:21.799Z,12.17
2023-03-25T00:39:48.932Z,5.60
2023-03-25T00:42:16.874Z,7.00
2023-03-25T00:44:43.808Z,5.07
2023-03-25T00:47:12.069Z,7.70
2023-03-25T00:49:38.851Z,7.47
2023-03-25T00:52:05.538Z,10.77
2023-03-25T00:54:34.288Z,7.10
2023-03-25T00:57:01.150Z,10.10
2023-03-25T00:59:27.942Z,7.37
2023-03-25T01:01:56.258Z,12.90
2023-03-25T01:04:23.186Z,5.33
2023-03-25T01:06:52.078Z,9.33
2023-03-25T01:09:20.059Z,4.73
2023-03-25T01:11:48.686Z,5.37
2023-03-25T01:14:19.088Z,4.77
2023-03-25T01:16:46.304Z,10.20
2023-03-25T01:19:14.224Z,6.43
2023-03-25T01:21:41.779Z,10.27
2023-03-25T01:24:12.526Z,7.90
2023-03-25T01:26:41.331Z,7.67
2023-03-25T01:29:08.051Z,11.57
2023-03-25T01:31:34.975Z,9.53
2023-03-25T01:34:02.060Z,8.17
2023-03-25T01:36:31.620Z,10.23
2023-03-25T01:39:00.042Z,8.93
2023-03-25T01:41:35.798Z,7.70
2023-03-25T01:44:18.171Z,8.40
2023-03-25T01:46:47.133Z,10.53
2023-03-25T01:49:21.514Z,6.77
2023-03-25T01:51:53.561Z,11.00
2023-03-25T01:54:20.670Z,9.77
2023-03-25T01:56:49.482Z,6.50
2023-03-25T01:59:19.825Z,16.37
2023-03-25T02:01:47.111Z,10.17
2023-03-25T02:04:16.670Z,9.60
2023-03-25T02:06:46.832Z,9.30
2023-03-25T02:09:17.842Z,11.00
2023-03-25T02:11:44.521Z,8.97
2023-03-25T02:14:15.451Z,12.57
2023-03-25T02:16:57.231Z,11.87
2023-03-25T02:19:36.094Z,16.00
2023-03-25T02:22:05.861Z,13.57
2023-03-25T02:25:02.080Z,11.97
2023-03-25T02:27:47.463Z,16.50
2023-03-25T02:30:30.322Z,11.80
2023-03-25T02:33:34.480Z,14.30
2023-03-25T02:36:13.173Z,9.33
2023-03-25T02:38:48.773Z,11.13
2023-03-25T02:41:29.283Z,13.80
2023-03-25T02:44:16.797Z,11.90
2023-03-25T02:46:51.197Z,9.90
2023-03-25T02:49:25.810Z,15.47
2023-03-25T02:52:05.044Z,10.17
2023-03-25T02:54:34.037Z,13.13
2023-03-25T02:57:01.176Z,11.03
2023-03-25T02:59:33.354Z,14.43
2023-03-25T03:02:04.846Z,15.47
2023-03-25T03:04:46.880Z,13.60
2023-03-25T03:07:29.244Z,15.77
2023-03-25T03:10:19.434Z,12.43
2023-03-25T03:13:07.731Z,10.73
2023-03-25T03:15:52.854Z,11.70
2023-03-25T03:18:38.288Z,13.90
2023-03-25T03:21:07.950Z,11.77
2023-03-25T03:23:46.245Z,15.47
2023-03-25T03:27:02.732Z,16.53
2023-03-25T03:29:31.979Z,14.67
2023-03-25T03:32:07.876Z,13.47
2023-03-25T03:34:52.774Z,14.27
2023-03-25T03:37:36.604Z,12.57
2023-03-25T03:40:07.281Z,11.77
2023-03-25T03:42:45.993Z,12.60
2023-03-25T03:45:24.110Z,17.27
2023-03-25T03:47:55.120Z,7.57
2023-03-25T03:50:29.449Z,14.77
2023-03-25T03:53:11.515Z,9.17
2023-03-25T03:55:58.091Z,12.40
2023-03-25T03:58:29.943Z,10.00
2023-03-25T04:01:03.177Z,11.53
2023-03-25T04:03:38.883Z,9.40
2023-03-25T04:06:35.482Z,10.23
2023-03-25T04:09:08.090Z,9.07
2023-03-25T04:11:43.714Z,8.40
2023-03-25T04:14:12.238Z,5.73
2023-03-25T04:16:39.145Z,10.07
2023-03-25T04:19:09.477Z,11.60
2023-03-25T04:21:36.132Z,8.43
2023-03-25T04:24:02.844Z,16.47
2023-03-25T04:26:34.057Z,13.23
2023-03-25T04:29:01.909Z,10.40
2023-03-25T04:31:31.350Z,10.87
2023-03-25T04:33:58.992Z,12.43
2023-03-25T04:36:29.517Z,10.20
2023-03-25T04:38:56.304Z,14.27
2023-03-25T04:41:23.424Z,8.07
2023-03-25T04:43:51.758Z,4.47
2023-03-25T04:46:19.012Z,5.63
2023-03-25T04:48:47.463Z,6.83
2023-03-25T04:51:16.070Z,5.10
2023-03-25T04:53:43.034Z,6.17
2023-03-25T04:56:15.688Z,3.13
2023-03-25T04:58:43.731Z,7.47
2023-03-25T05:01:21.813Z,7.77
2023-03-25T05:03:50.321Z,4.20
2023-03-25T05:06:18.079Z,7.03
2023-03-25T05:08:44.797Z,4.20
2023-03-25T05:11:11.522Z,4.87
2023-03-25T05:13:38.294Z,7.30
2023-03-25T05:16:05.515Z,8.10
2023-03-25T05:18:32.240Z,10.63
2023-03-25T05:21:00.929Z,6.77
2023-03-25T05:23:27.582Z,5.73
2023-03-25T05:25:54.555Z,4.33
2023-03-25T05:28:21.300Z,8.60
2023-03-25T05:30:48.089Z,10.87
2023-03-25T05:33:17.019Z,8.77
2023-03-25T05:35:45.255Z,8.67
2023-03-25T05:38:13.683Z,10.47
2023-03-25T05:40:40.455Z,10.53
2023-03-25T05:43:08.049Z,10.83
2023-03-25T05:45:38.284Z,11.50
2023-03-25T05:48:05.297Z,11.97
2023-03-25T05:50:32.213Z,9.00
2023-03-25T05:52:59.978Z,10.30
2023-03-25T05:55:27.864Z,12.27
2023-03-25T05:57:54.658Z,15.23
2023-03-25T06:00:23.678Z,8.47
2023-03-25T06:02:52.255Z,9.33
2023-03-25T06:05:23.817Z,11.53
2023-03-25T06:07:51.574Z,13.87
2023-03-25T06:10:19.079Z,14.43
2023-03-25T06:12:47.270Z,9.17
2023-03-25T06:15:18.068Z,13.63
2023-03-25T06:17:47.247Z,9.60
2023-03-25T06:20:16.660Z,12.07
2023-03-25T06:22:45.547Z,8.27
2023-03-25T06:25:19.527Z,7.67
2023-03-25T06:27:49.296Z,9.47
2023-03-25T06:30:19.174Z,13.93
2023-03-25T06:32:50.533Z,8.47
2023-03-25T06:35:20.306Z,5.30
2023-03-25T06:37:49.021Z,7.82
2023-03-25T06:40:15.916Z,8.63
2023-03-25T06:42:42.697Z,7.07
2023-03-25T06:45:10.305Z,6.33
2023-03-25T06:47:37.284Z,5.63
2023-03-25T06:50:04.650Z,9.07
2023-03-25T06:52:31.328Z,5.97
2023-03-25T06:54:57.995Z,7.97
2023-03-25T06:57:24.714Z,7.83
2023-03-25T06:59:51.422Z,7.33
2023-03-25T07:02:18.203Z,9.10
2023-03-25T07:04:44.993Z,7.80
2023-03-25T07:07:11.807Z,13.10
2023-03-25T07:09:38.515Z,12.53
2023-03-25T07:12:08.398Z,12.93
2023-03-25T07:14:35.832Z,8.07
2023-03-25T07:17:02.599Z,11.00
2023-03-25T07:19:29.265Z,11.57
2023-03-25T07:21:55.911Z,13.03
2023-03-25T07:24:22.680Z,8.37
2023-03-25T07:26:49.454Z,11.63
2023-03-25T07:29:16.121Z,16.30
2023-03-25T07:31:42.933Z,5.83
2023-03-25T07:34:09.721Z,5.27
2023-03-25T07:36:36.429Z,7.03
2023-03-25T07:39:03.454Z,6.30
2023-03-25T07:41:30.278Z,7.93
2023-03-25T07:43:56.913Z,8.63
2023-03-25T07:46:23.633Z,7.17
2023-03-25T07:48:52.604Z,11.67
2023-03-25T07:51:19.275Z,8.90
2023-03-25T07:53:49.225Z,6.93
2023-03-25T07:56:16.089Z,8.10
2023-03-25T07:58:44.497Z,6.90
2023-03-25T08:01:14.000Z,10.23
2023-03-25T08:03:40.795Z,7.93
2023-03-25T08:06:08.548Z,8.30
2023-03-25T08:08:35.918Z,9.63
2023-03-25T08:11:02.964Z,8.63
2023-03-25T08:13:30.305Z,9.90
2023-03-25T08:15:57.230Z,9.50
2023-03-25T08:18:24.209Z,7.07
2023-03-25T08:20:51.088Z,12.80
2023-03-25T08:23:20.123Z,10.60
2023-03-25T08:25:49.459Z,7.90
2023-03-25T08:28:24.697Z,8.87
2023-03-25T08:30:55.198Z,9.53
2023-03-25T08:33:27.344Z,13.37
2023-03-25T08:35:57.554Z,10.57
2023-03-25T08:38:25.308Z,8.83
2023-03-25T08:40:52.092Z,14.20
2023-03-25T08:43:18.744Z,13.40
2023-03-25T08:45:45.519Z,10.57
2023-03-25T08:48:12.355Z,13.90
2023-03-25T08:50:39.069Z,8.30
2023-03-25T08:53:07.225Z,15.47
2023-03-25T08:55:33.946Z,9.40
2023-03-25T08:58:06.224Z,11.80
2023-03-25T09:00:33.015Z,8.27
2023-03-25T09:03:00.806Z,15.10
2023-03-25T09:05:27.766Z,8.70
2023-03-25T09:07:54.481Z,10.73
2023-03-25T09:10:21.329Z,8.03
2023-03-25T09:12:47.985Z,7.83
2023-03-25T09:15:14.594Z,13.73
2023-03-25T09:17:42.943Z,11.30
2023-03-25T09:20:10.842Z,11.07
2023-03-25T09:22:38.997Z,9.40
2023-03-25T09:25:09.425Z,8.30
2023-03-25T09:27:36.534Z,9.70
2023-03-25T09:30:04.880Z,10.67
2023-03-25T09:32:31.585Z,16.17
2023-03-25T09:34:58.379Z,12.80
2023-03-25T09:37:28.014Z,9.97
2023-03-25T09:39:54.727Z,10.90
2023-03-25T09:42:33.494Z,11.40
2023-03-25T09:45:24.563Z,11.53
2023-03-25T09:48:22.465Z,10.37
2023-03-25T09:50:49.358Z,13.80
2023-03-25T09:53:31.349Z,14.87
2023-03-25T09:55:59.028Z,16.57
2023-03-25T09:58:42.045Z,13.23
2023-03-25T10:01:19.947Z,7.27
2023-03-25T10:04:02.860Z,6.63
2023-03-25T10:06:32.581Z,5.47
2023-03-25T10:09:18.860Z,7.23
2023-03-25T10:12:03.743Z,13.13
2023-03-25T10:14:52.704Z,8.27
2023-03-25T10:17:58.290Z,3.63
2023-03-25T10:20:51.213Z,4.97
2023-03-25T10:23:27.045Z,8.23
2023-03-25T10:26:02.567Z,5.00
2023-03-25T10:28:37.363Z,7.40
2023-03-25T10:31:06.742Z,8.03
2023-03-25T10:33:36.047Z,6.73
2023-03-25T10:36:06.621Z,13.17
2023-03-25T10:38:37.339Z,5.27
2023-03-25T10:41:26.551Z,8.37
2023-03-25T10:43:53.634Z,10.80
2023-03-25T10:46:29.415Z,11.13
2023-03-25T10:48:56.451Z,12.60
2023-03-25T10:51:32.208Z,12.20
2023-03-25T10:54:00.206Z,8.83
2023-03-25T10:56:32.796Z,11.57
2023-03-25T10:59:04.336Z,8.70
2023-03-25T11:01:41.208Z,9.17
2023-03-25T11:04:12.174Z,12.63
2023-03-25T11:06:41.516Z,6.20
2023-03-25T11:09:13.945Z,7.93
2023-03-25T11:11:42.465Z,11.10
2023-03-25T11:14:10.939Z,6.10
2023-03-25T11:16:46.218Z,9.57
2023-03-25T11:19:22.768Z,9.33
2023-03-25T11:21:55.525Z,10.00
2023-03-25T11:24:29.027Z,8.63
2023-03-25T11:26:56.394Z,11.23
2023-03-25T11:29:26.529Z,11.40
2023-03-25T11:32:17.001Z,9.60
2023-03-25T11:34:47.877Z,8.27
2023-03-25T11:37:18.981Z,6.90
2023-03-25T11:39:55.563Z,13.67
2023-03-25T11:42:33.561Z,13.80
2023-03-25T11:45:02.291Z,10.97
2023-03-25T11:47:35.580Z,19.53
2023-03-25T11:50:03.948Z,14.17
2023-03-25T11:52:43.195Z,9.77
2023-03-25T11:55:31.223Z,13.37
2023-03-25T11:58:01.983Z,17.37
2023-03-25T12:00:34.138Z,11.63
2023-03-25T12:03:02.983Z,13.27
2023-03-25T12:05:30.372Z,14.17
2023-03-25T12:08:18.900Z,7.33
2023-03-25T12:11:10.374Z,12.50
2023-03-25T12:13:45.987Z,14.20
2023-03-25T12:16:32.471Z,7.77
2023-03-25T12:19:16.334Z,7.73
2023-03-25T12:22:08.048Z,8.90
2023-03-25T12:24:34.701Z,7.20
2023-03-25T12:27:48.051Z,8.33
2023-03-25T12:30:17.554Z,6.97
2023-03-25T12:32:53.222Z,13.00
2023-03-25T12:35:57.412Z,6.40
2023-03-25T12:38:53.371Z,4.90
2023-03-25T12:41:49.692Z,3.67
2023-03-25T12:44:19.306Z,8.47
2023-03-25T12:47:02.585Z,8.00
2023-03-25T12:49:41.627Z,5.17
2023-03-25T12:52:32.756Z,4.63
2023-03-25T12:55:24.194Z,2.37
2023-03-25T12:58:11.065Z,7.50
2023-03-25T13:00:41.794Z,4.00
2023-03-25T13:03:36.310Z,2.97
2023-03-25T13:06:31.053Z,1.73
2023-03-25T13:09:04.520Z,1.07
2023-03-25T13:11:50.047Z,4.67
2023-03-25T13:14:25.987Z,2.90
2023-03-25T13:16:57.757Z,2.97
2023-03-25T13:19:27.691Z,3.23
2023-03-25T13:21:58.173Z,4.20
2023-03-25T13:24:49.716Z,6.43
2023-03-25T13:27:17.434Z,4.70
2023-03-25T13:29:49.466Z,4.93
2023-03-25T13:32:25.667Z,5.07
2023-03-25T13:35:00.663Z,9.47
2023-03-25T13:37:59.939Z,8.43
2023-03-25T13:40:33.836Z,6.90
2023-03-25T13:43:19.327Z,7.57
2023-03-25T13:46:09.406Z,7.03
2023-03-25T13:48:47.134Z,5.47
2023-03-25T13:51:13.912Z,5.60
2023-03-25T13:53:46.489Z,8.97
2023-03-25T13:56:40.926Z,7.27
2023-03-25T13:59:44.606Z,11.30
2023-03-25T14:02:25.313Z,10.43
2023-03-25T14:05:51.563Z,9.23
2023-03-25T14:08:43.133Z,11.80
2023-03-25T14:11:30.969Z,12.03
2023-03-25T14:14:03.425Z,14.63
2023-03-25T14:16:36.248Z,10.83
2023-03-25T14:19:07.320Z,13.97
2023-03-25T14:21:36.938Z,8.37
2023-03-25T14:24:34.934Z,11.37
2023-03-25T14:27:05.788Z,16.40
2023-03-25T14:29:43.646Z,11.10
2023-03-25T14:32:16.294Z,13.33
2023-03-25T14:34:44.527Z,11.47
2023-03-25T14:37:16.701Z,12.30
2023-03-25T14:39:44.680Z,15.33
2023-03-25T14:42:23.860Z,17.17
2023-03-25T14:45:14.478Z,14.20
2023-03-25T14:47:53.585Z,12.17
2023-03-25T14:50:20.620Z,15.20
2023-03-25T14:52:52.002Z,8.27
2023-03-25T14:55:20.316Z,12.73
2023-03-25T14:57:48.980Z,17.07
2023-03-25T15:00:28.971Z,12.00
2023-03-25T15:03:17.691Z,9.67
2023-03-25T15:05:53.414Z,9.77
2023-03-25T15:08:27.297Z,10.10
2023-03-25T15:11:11.991Z,12.10
2023-03-25T15:13:47.415Z,17.23
2023-03-25T15:16:19.171Z,18.20
2023-03-25T15:18:47.105Z,12.27
2023-03-25T15:21:14.777Z,13.30
2023-03-25T15:23:47.568Z,13.63
2023-03-25T15:26:19.605Z,20.67
2023-03-25T15:29:07.888Z,26.83
2023-03-25T15:31:52.690Z,11.43
2023-03-25T15:34:34.262Z,11.40
2023-03-25T15:37:45.617Z,10.97
2023-03-25T15:40:34.960Z,9.40
2023-03-25T15:43:29.004Z,15.63
2023-03-25T15:46:02.049Z,13.50
2023-03-25T15:48:50.085Z,17.27
2023-03-25T15:51:41.553Z,18.60
2023-03-25T15:54:57.656Z,23.07
2023-03-25T15:57:33.674Z,8.53
2023-03-25T16:00:18.844Z,10.27
2023-03-25T16:02:53.357Z,8.13
2023-03-25T16:05:21.724Z,11.77
2023-03-25T16:07:49.130Z,8.63
2023-03-25T16:10:19.202Z,12.87
2023-03-25T16:12:47.726Z,8.30
2023-03-25T16:15:17.074Z,8.60
2023-03-25T16:17:45.762Z,8.03
2023-03-25T16:20:19.214Z,10.50
2023-03-25T16:22:52.567Z,7.83
2023-03-25T16:25:23.240Z,11.10
2023-03-25T16:27:56.902Z,10.77
2023-03-25T16:30:43.759Z,11.10
2023-03-25T16:33:10.760Z,10.17
2023-03-25T16:35:41.526Z,13.43
2023-03-25T16:38:13.419Z,5.97
2023-03-25T16:40:41.926Z,8.57
2023-03-25T16:43:18.953Z,13.97
2023-03-25T16:45:47.225Z,8.80
2023-03-25T16:48:25.041Z,4.77
2023-03-25T16:50:57.562Z,5.57
2023-03-25T16:53:25.910Z,5.27
2023-03-25T16:56:22.787Z,7.50
2023-03-25T16:59:15.834Z,1.80
2023-03-25T17:01:50.475Z,9.37
2023-03-25T17:04:22.362Z,2.10
2023-03-25T17:06:52.791Z,3.37
2023-03-25T17:09:22.653Z,9.40
2023-03-25T17:11:55.023Z,4.80
2023-03-25T17:14:27.597Z,3.37
2023-03-25T17:16:54.740Z,6.10
2023-03-25T17:19:23.617Z,3.63
2023-03-25T17:22:04.679Z,3.30
2023-03-25T17:24:40.277Z,2.90
2023-03-25T17:27:21.270Z,3.43
2023-03-25T17:29:59.828Z,11.10
2023-03-25T17:32:26.963Z,4.10
2023-03-25T17:34:58.357Z,1.63
2023-03-25T17:37:26.513Z,2.43
2023-03-25T17:39:53.476Z,2.87
2023-03-25T17:42:26.095Z,2.77
2023-03-25T17:44:53.672Z,4.87
2023-03-25T17:47:21.667Z,9.60
2023-03-25T17:49:48.573Z,7.03
2023-03-25T17:52:15.279Z,8.47
2023-03-25T17:54:41.959Z,4.13
2023-03-25T17:57:14.418Z,7.07
2023-03-25T17:59:41.240Z,7.37
2023-03-25T18:02:12.809Z,10.40
2023-03-25T18:04:39.562Z,3.47
2023-03-25T18:07:06.650Z,6.97
2023-03-25T18:09:33.991Z,6.97
2023-03-25T18:12:00.973Z,8.60
2023-03-25T18:14:27.904Z,5.50
2023-03-25T18:16:56.308Z,4.07
2023-03-25T18:19:25.638Z,5.10
2023-03-25T18:21:53.062Z,7.20
2023-03-25T18:24:19.945Z,4.83
2023-03-25T18:26:47.492Z,5.27
2023-03-25T18:29:24.291Z,8.03
2023-03-25T18:31:52.054Z,5.03
2023-03-25T18:34:20.756Z,5.70
2023-03-25T18:36:49.424Z,5.10
2023-03-25T18:39:22.906Z,7.83
2023-03-25T18:41:49.876Z,5.97
2023-03-25T18:44:16.726Z,5.03
2023-03-25T18:46:43.738Z,6.67
2023-03-25T18:49:16.858Z,6.33
2023-03-25T18:51:43.778Z,10.67
2023-03-25T18:54:11.241Z,9.83
2023-03-25T18:56:41.506Z,5.27
2023-03-25T18:59:10.636Z,5.93
2023-03-25T19:01:37.364Z,5.40
2023-03-25T19:04:04.055Z,7.73
2023-03-25T19:06:31.295Z,3.93
2023-03-25T19:08:58.211Z,7.83
2023-03-25T19:11:26.073Z,9.80
2023-03-25T19:13:52.801Z,5.27
2023-03-25T19:16:20.195Z,5.53
2023-03-25T19:18:47.509Z,10.17
2023-03-25T19:21:17.226Z,4.53
2023-03-25T19:23:44.042Z,7.87
2023-03-25T19:26:10.814Z,6.60
2023-03-25T19:28:37.705Z,12.07
2023-03-25T19:31:04.700Z,11.83
2023-03-25T19:33:32.022Z,15.13
2023-03-25T19:36:01.886Z,13.67
2023-03-25T19:38:29.786Z,17.60
2023-03-25T19:41:08.926Z,11.67
2023-03-25T19:43:36.207Z,16.27
2023-03-25T19:46:05.498Z,16.27
2023-03-25T19:48:33.173Z,12.13
2023-03-25T19:50:59.900Z,12.43
2023-03-25T19:53:27.754Z,10.30
2023-03-25T19:55:55.083Z,6.30
2023-03-25T19:58:22.977Z,12.87
2023-03-25T20:00:50.421Z,6.33
2023-03-25T20:03:22.203Z,10.13
2023-03-25T20:05:55.644Z,7.63
2023-03-25T20:08:23.314Z,10.50
2023-03-25T20:10:50.116Z,14.57
2023-03-25T20:13:16.793Z,19.47
2023-03-25T20:15:43.814Z,12.67
2023-03-25T20:18:11.003Z,14.23
2023-03-25T20:20:39.753Z,11.23
2023-03-25T20:23:06.412Z,18.07
2023-03-25T20:25:33.143Z,14.40
2023-03-25T20:28:00.226Z,10.37
2023-03-25T20:30:27.129Z,13.50
2023-03-25T20:32:53.857Z,12.27
2023-03-25T20:35:21.217Z,16.87
2023-03-25T20:37:49.091Z,16.33
2023-03-25T20:40:17.864Z,15.80
2023-03-25T20:42:46.294Z,16.10
2023-03-25T20:45:15.491Z,14.33
2023-03-25T20:47:43.000Z,12.10
2023-03-25T20:50:13.015Z,8.13
2023-03-25T20:52:40.254Z,12.80
2023-03-25T20:55:09.852Z,18.00
2023-03-25T20:57:37.161Z,10.13
2023-03-25T21:00:05.862Z,10.30
2023-03-25T21:02:32.913Z,10.30
2023-03-25T21:05:01.969Z,7.40
2023-03-25T21:07:31.969Z,15.17
2023-03-25T21:09:59.629Z,10.20
2023-03-25T21:12:36.325Z,9.23
2023-03-25T21:15:09.224Z,12.57
2023-03-25T21:17:36.061Z,12.47
2023-03-25T21:20:07.258Z,7.37
2023-03-25T21:22:34.725Z,12.43
2023-03-25T21:25:01.468Z,14.80
2023-03-25T21:27:38.702Z,13.63
2023-03-25T21:30:09.286Z,9.87
2023-03-25T21:32:36.151Z,11.10
2023-03-25T21:35:02.807Z,13.47
2023-03-25T21:37:35.071Z,17.60
2023-03-25T21:40:01.743Z,9.77
2023-03-25T21:42:28.456Z,10.77
2023-03-25T21:44:55.120Z,16.20
2023-03-25T21:47:22.385Z,14.50
2023-03-25T21:49:50.373Z,9.93
2023-03-25T21:52:17.838Z,18.73
2023-03-25T21:54:48.405Z,16.73
2023-03-25T21:57:15.287Z,19.83
2023-03-25T21:59:41.932Z,16.10
2023-03-25T22:02:09.828Z,21.40
2023-03-25T22:04:37.732Z,17.80
2023-03-25T22:07:07.965Z,23.83
2023-03-25T22:09:34.988Z,19.40
2023-03-25T22:12:01.653Z,17.40
2023-03-25T22:14:28.297Z,19.10
2023-03-25T22:16:55.003Z,16.67
2023-03-25T22:19:24.042Z,20.80
2023-03-25T22:21:51.387Z,21.53
2023-03-25T22:24:18.139Z,20.10
2023-03-25T22:26:44.839Z,19.83
2023-03-25T22:29:11.600Z,17.27
2023-03-25T22:31:42.826Z,15.13
2023-03-25T22:34:15.519Z,20.50
2023-03-25T22:36:49.390Z,20.20
2023-03-25T22:39:23.176Z,22.67
2023-03-25T22:41:50.052Z,14.57
2023-03-25T22:44:18.104Z,24.10
2023-03-25T22:46:45.950Z,23.53
2023-03-25T22:49:13.358Z,19.27
2023-03-25T22:51:40.207Z,24.20
2023-03-25T22:54:07.459Z,21.87
2023-03-25T22:56:34.218Z,20.80
2023-03-25T22:59:02.044Z,23.33
2023-03-25T23:01:29.194Z,11.73
2023-03-25T23:04:01.661Z,20.20
2023-03-25T23:06:28.623Z,19.20
2023-03-25T23:08:56.193Z,23.43
2023-03-25T23:11:26.046Z,29.50
2023-03-25T23:13:55.663Z,17.70
2023-03-25T23:16:25.045Z,18.80
2023-03-25T23:18:52.266Z,24.53
2023-03-25T23:21:25.884Z,17.27
2023-03-25T23:23:54.752Z,20.03
2023-03-25T23:26:26.457Z,20.03
2023-03-25T23:28:54.832Z,20.73
2023-03-25T23:31:28.079Z,18.07
2023-03-25T23:33:57.816Z,9.67
2023-03-25T23:36:26.059Z,12.53
2023-03-25T23:38:53.643Z,9.97
2023-03-25T23:41:22.857Z,11.90
2023-03-25T23:43:54.301Z,18.13
2023-03-25T23:46:22.437Z,15.53
2023-03-25T23:48:54.983Z,18.03
2023-03-25T23:51:24.336Z,14.77
2023-03-25T23:53:52.122Z,14.13
2023-03-25T23:56:21.070Z,19.90
2023-03-25T23:58:47.994Z,10.73
